sensor_id;sensor_type;location;lat;lon;timestamp;P1;durP1;ratioP1;P2;durP2;ratioP2
14975;SDS011;7584;60.468;25.126;2022-12-07T00:00:26;10.50;;;6.60;;
14975;SDS011;7584;60.468;25.126;2022-12-07T00:02:51;10.43;;;6.10;;
14975;SDS011;7584;60.468;25.126;2022-12-07T00:05:16;10.53;;;5.27;;
14975;SDS011;7584;60.468;25.126;2022-12-07T00:07:42;9.80;;;5.67;;
14975;SDS011;7584;60.468;25.126;2022-12-07T00:10:07;9.53;;;5.93;;
14975;SDS011;7584;60.468;25.126;2022-12-07T00:12:33;7.57;;;5.40;;
14975;SDS011;7584;60.468;25.126;2022-12-07T00:14:58;8.93;;;5.87;;
14975;SDS011;7584;60.468;25.126;2022-12-07T00:17:23;7.90;;;5.83;;
14975;SDS011;7584;60.468;25.126;2022-12-07T00:19:48;8.27;;;5.87;;
14975;SDS011;7584;60.468;25.126;2022-12-07T00:22:14;6.93;;;4.90;;
14975;SDS011;7584;60.468;25.126;2022-12-07T00:24:39;8.40;;;5.17;;
14975;SDS011;7584;60.468;25.126;2022-12-07T00:27:04;7.57;;;5.47;;
14975;SDS011;7584;60.468;25.126;2022-12-07T00:29:29;9.17;;;5.33;;
14975;SDS011;7584;60.468;25.126;2022-12-07T00:31:55;7.67;;;5.50;;
14975;SDS011;7584;60.468;25.126;2022-12-07T00:34:20;8.97;;;5.97;;
14975;SDS011;7584;60.468;25.126;2022-12-07T00:36:46;9.30;;;5.43;;
14975;SDS011;7584;60.468;25.126;2022-12-07T00:39:11;8.90;;;5.37;;
14975;SDS011;7584;60.468;25.126;2022-12-07T00:41:36;6.80;;;5.43;;
14975;SDS011;7584;60.468;25.126;2022-12-07T00:44:02;8.40;;;5.30;;
14975;SDS011;7584;60.468;25.126;2022-12-07T00:46:27;7.57;;;5.03;;
14975;SDS011;7584;60.468;25.126;2022-12-07T00:48:53;8.70;;;5.53;;
14975;SDS011;7584;60.468;25.126;2022-12-07T00:51:19;7.57;;;5.07;;
14975;SDS011;7584;60.468;25.126;2022-12-07T00:53:45;8.43;;;5.57;;
14975;SDS011;7584;60.468;25.126;2022-12-07T00:56:15;9.23;;;5.43;;
14975;SDS011;7584;60.468;25.126;2022-12-07T00:58:40;9.07;;;5.53;;
14975;SDS011;7584;60.468;25.126;2022-12-07T01:01:06;7.43;;;5.03;;
14975;SDS011;7584;60.468;25.126;2022-12-07T01:03:32;8.63;;;5.40;;
14975;SDS011;7584;60.468;25.126;2022-12-07T01:05:57;7.57;;;5.43;;
14975;SDS011;7584;60.468;25.126;2022-12-07T01:08:23;7.70;;;5.13;;
14975;SDS011;7584;60.468;25.126;2022-12-07T01:10:49;10.20;;;5.60;;
14975;SDS011;7584;60.468;25.126;2022-12-07T01:13:15;9.73;;;5.60;;
14975;SDS011;7584;60.468;25.126;2022-12-07T01:15:43;9.93;;;5.47;;
14975;SDS011;7584;60.468;25.126;2022-12-07T01:18:09;8.87;;;5.50;;
14975;SDS011;7584;60.468;25.126;2022-12-07T01:20:35;9.17;;;5.50;;
14975;SDS011;7584;60.468;25.126;2022-12-07T01:23:00;8.70;;;5.87;;
14975;SDS011;7584;60.468;25.126;2022-12-07T01:25:25;8.10;;;5.97;;
14975;SDS011;7584;60.468;25.126;2022-12-07T01:27:51;7.43;;;5.53;;
14975;SDS011;7584;60.468;25.126;2022-12-07T01:30:16;10.33;;;5.77;;
14975;SDS011;7584;60.468;25.126;2022-12-07T01:32:41;8.63;;;5.60;;
14975;SDS011;7584;60.468;25.126;2022-12-07T01:35:07;8.17;;;5.63;;
14975;SDS011;7584;60.468;25.126;2022-12-07T01:37:36;9.27;;;6.63;;
14975;SDS011;7584;60.468;25.126;2022-12-07T01:40:02;8.70;;;6.37;;
14975;SDS011;7584;60.468;25.126;2022-12-07T01:42:28;10.10;;;7.00;;
14975;SDS011;7584;60.468;25.126;2022-12-07T01:47:37;9.50;;;6.03;;
14975;SDS011;7584;60.468;25.126;2022-12-07T01:50:02;9.57;;;6.13;;
14975;SDS011;7584;60.468;25.126;2022-12-07T01:52:28;8.83;;;6.17;;
14975;SDS011;7584;60.468;25.126;2022-12-07T01:54:57;9.13;;;6.30;;
14975;SDS011;7584;60.468;25.126;2022-12-07T01:57:23;9.37;;;5.63;;
14975;SDS011;7584;60.468;25.126;2022-12-07T01:59:49;8.80;;;6.00;;
14975;SDS011;7584;60.468;25.126;2022-12-07T02:02:19;10.20;;;6.67;;
14975;SDS011;7584;60.468;25.126;2022-12-07T02:04:45;10.63;;;6.33;;
14975;SDS011;7584;60.468;25.126;2022-12-07T02:07:11;8.23;;;5.30;;
14975;SDS011;7584;60.468;25.126;2022-12-07T02:09:36;9.37;;;5.53;;
14975;SDS011;7584;60.468;25.126;2022-12-07T02:12:01;8.60;;;5.53;;
14975;SDS011;7584;60.468;25.126;2022-12-07T02:14:27;7.73;;;5.60;;
14975;SDS011;7584;60.468;25.126;2022-12-07T02:27:56;8.10;;;5.57;;
14975;SDS011;7584;60.468;25.126;2022-12-07T02:30:23;7.90;;;4.93;;
14975;SDS011;7584;60.468;25.126;2022-12-07T02:35:20;9.20;;;5.40;;
14975;SDS011;7584;60.468;25.126;2022-12-07T02:38:02;10.80;;;5.80;;
14975;SDS011;7584;60.468;25.126;2022-12-07T02:40:31;9.50;;;5.93;;
14975;SDS011;7584;60.468;25.126;2022-12-07T02:43:00;6.43;;;4.93;;
14975;SDS011;7584;60.468;25.126;2022-12-07T02:45:27;6.67;;;4.87;;
14975;SDS011;7584;60.468;25.126;2022-12-07T02:47:55;8.43;;;5.93;;
14975;SDS011;7584;60.468;25.126;2022-12-07T02:50:21;6.33;;;4.67;;
14975;SDS011;7584;60.468;25.126;2022-12-07T02:52:46;6.67;;;4.70;;
14975;SDS011;7584;60.468;25.126;2022-12-07T02:55:12;9.10;;;5.00;;
14975;SDS011;7584;60.468;25.126;2022-12-07T03:00:23;10.30;;;5.70;;
14975;SDS011;7584;60.468;25.126;2022-12-07T03:08:00;9.47;;;5.43;;
14975;SDS011;7584;60.468;25.126;2022-12-07T03:10:46;13.53;;;6.30;;
14975;SDS011;7584;60.468;25.126;2022-12-07T03:15:58;25.93;;;6.80;;
14975;SDS011;7584;60.468;25.126;2022-12-07T03:18:28;34.00;;;6.90;;
14975;SDS011;7584;60.468;25.126;2022-12-07T03:20:55;37.60;;;7.43;;
14975;SDS011;7584;60.468;25.126;2022-12-07T03:23:21;29.70;;;7.37;;
14975;SDS011;7584;60.468;25.126;2022-12-07T03:25:49;30.53;;;8.13;;
14975;SDS011;7584;60.468;25.126;2022-12-07T03:28:17;30.03;;;7.73;;
14975;SDS011;7584;60.468;25.126;2022-12-07T03:33:11;33.60;;;7.50;;
14975;SDS011;7584;60.468;25.126;2022-12-07T03:35:41;37.33;;;7.90;;
14975;SDS011;7584;60.468;25.126;2022-12-07T03:38:11;24.10;;;7.70;;
14975;SDS011;7584;60.468;25.126;2022-12-07T03:40:40;19.17;;;7.50;;
14975;SDS011;7584;60.468;25.126;2022-12-07T03:43:09;21.73;;;7.83;;
14975;SDS011;7584;60.468;25.126;2022-12-07T03:50:45;18.43;;;8.33;;
14975;SDS011;7584;60.468;25.126;2022-12-07T03:53:15;15.23;;;7.53;;
14975;SDS011;7584;60.468;25.126;2022-12-07T03:55:43;13.17;;;6.77;;
14975;SDS011;7584;60.468;25.126;2022-12-07T03:58:11;15.37;;;7.27;;
14975;SDS011;7584;60.468;25.126;2022-12-07T04:00:37;16.07;;;7.77;;
14975;SDS011;7584;60.468;25.126;2022-12-07T04:03:03;12.57;;;6.77;;
14975;SDS011;7584;60.468;25.126;2022-12-07T04:05:28;16.93;;;7.37;;
14975;SDS011;7584;60.468;25.126;2022-12-07T04:07:53;15.53;;;7.20;;
14975;SDS011;7584;60.468;25.126;2022-12-07T04:10:19;12.40;;;7.40;;
14975;SDS011;7584;60.468;25.126;2022-12-07T04:12:44;15.13;;;7.03;;
14975;SDS011;7584;60.468;25.126;2022-12-07T04:15:10;16.93;;;7.80;;
14975;SDS011;7584;60.468;25.126;2022-12-07T04:17:35;14.57;;;7.70;;
14975;SDS011;7584;60.468;25.126;2022-12-07T04:20:00;10.33;;;6.53;;
14975;SDS011;7584;60.468;25.126;2022-12-07T04:22:26;14.50;;;7.87;;
14975;SDS011;7584;60.468;25.126;2022-12-07T04:24:51;12.60;;;7.53;;
14975;SDS011;7584;60.468;25.126;2022-12-07T04:27:16;17.13;;;7.97;;
14975;SDS011;7584;60.468;25.126;2022-12-07T04:29:42;18.37;;;8.03;;
14975;SDS011;7584;60.468;25.126;2022-12-07T04:32:07;14.40;;;7.53;;
14975;SDS011;7584;60.468;25.126;2022-12-07T04:34:32;15.63;;;7.27;;
14975;SDS011;7584;60.468;25.126;2022-12-07T04:36:57;13.00;;;7.30;;
14975;SDS011;7584;60.468;25.126;2022-12-07T04:41:48;16.73;;;8.03;;
14975;SDS011;7584;60.468;25.126;2022-12-07T04:44:14;14.00;;;6.93;;
14975;SDS011;7584;60.468;25.126;2022-12-07T04:46:40;14.50;;;7.63;;
14975;SDS011;7584;60.468;25.126;2022-12-07T04:49:05;13.57;;;7.13;;
14975;SDS011;7584;60.468;25.126;2022-12-07T04:51:30;13.57;;;6.97;;
14975;SDS011;7584;60.468;25.126;2022-12-07T04:53:56;17.10;;;7.77;;
14975;SDS011;7584;60.468;25.126;2022-12-07T04:56:22;15.57;;;7.50;;
14975;SDS011;7584;60.468;25.126;2022-12-07T04:58:48;11.53;;;6.70;;
14975;SDS011;7584;60.468;25.126;2022-12-07T05:01:14;15.93;;;8.03;;
14975;SDS011;7584;60.468;25.126;2022-12-07T05:03:40;11.63;;;5.67;;
14975;SDS011;7584;60.468;25.126;2022-12-07T05:06:05;13.20;;;6.50;;
14975;SDS011;7584;60.468;25.126;2022-12-07T05:08:32;9.87;;;6.07;;
14975;SDS011;7584;60.468;25.126;2022-12-07T05:10:57;10.03;;;5.40;;
14975;SDS011;7584;60.468;25.126;2022-12-07T05:13:22;11.13;;;6.23;;
14975;SDS011;7584;60.468;25.126;2022-12-07T05:15:48;13.40;;;6.60;;
14975;SDS011;7584;60.468;25.126;2022-12-07T05:18:14;13.77;;;6.33;;
14975;SDS011;7584;60.468;25.126;2022-12-07T05:20:40;13.00;;;6.87;;
14975;SDS011;7584;60.468;25.126;2022-12-07T05:23:05;14.57;;;6.23;;
14975;SDS011;7584;60.468;25.126;2022-12-07T05:25:30;20.20;;;8.20;;
14975;SDS011;7584;60.468;25.126;2022-12-07T05:27:55;15.77;;;6.77;;
14975;SDS011;7584;60.468;25.126;2022-12-07T05:30:21;12.53;;;7.00;;
14975;SDS011;7584;60.468;25.126;2022-12-07T05:32:47;11.87;;;6.80;;
14975;SDS011;7584;60.468;25.126;2022-12-07T05:35:12;12.07;;;6.87;;
14975;SDS011;7584;60.468;25.126;2022-12-07T05:37:37;13.93;;;6.63;;
14975;SDS011;7584;60.468;25.126;2022-12-07T05:40:03;15.40;;;7.43;;
14975;SDS011;7584;60.468;25.126;2022-12-07T05:42:29;18.03;;;7.67;;
14975;SDS011;7584;60.468;25.126;2022-12-07T05:44:54;14.73;;;6.83;;
14975;SDS011;7584;60.468;25.126;2022-12-07T05:47:19;13.60;;;6.77;;
14975;SDS011;7584;60.468;25.126;2022-12-07T05:49:44;14.97;;;6.97;;
14975;SDS011;7584;60.468;25.126;2022-12-07T05:52:10;15.93;;;7.17;;
14975;SDS011;7584;60.468;25.126;2022-12-07T05:54:35;12.93;;;6.70;;
14975;SDS011;7584;60.468;25.126;2022-12-07T05:57:00;14.00;;;6.53;;
14975;SDS011;7584;60.468;25.126;2022-12-07T05:59:26;12.00;;;6.70;;
14975;SDS011;7584;60.468;25.126;2022-12-07T06:01:59;11.97;;;6.60;;
14975;SDS011;7584;60.468;25.126;2022-12-07T06:04:26;15.20;;;6.67;;
14975;SDS011;7584;60.468;25.126;2022-12-07T06:06:52;24.37;;;7.70;;
14975;SDS011;7584;60.468;25.126;2022-12-07T06:09:18;19.03;;;7.03;;
14975;SDS011;7584;60.468;25.126;2022-12-07T06:11:43;14.63;;;7.17;;
14975;SDS011;7584;60.468;25.126;2022-12-07T06:14:27;14.37;;;6.43;;
14975;SDS011;7584;60.468;25.126;2022-12-07T06:16:52;19.37;;;6.30;;
14975;SDS011;7584;60.468;25.126;2022-12-07T06:19:18;19.83;;;7.23;;
14975;SDS011;7584;60.468;25.126;2022-12-07T06:21:43;16.13;;;7.83;;
14975;SDS011;7584;60.468;25.126;2022-12-07T06:24:10;23.63;;;8.03;;
14975;SDS011;7584;60.468;25.126;2022-12-07T06:26:35;18.60;;;7.63;;
14975;SDS011;7584;60.468;25.126;2022-12-07T06:29:01;19.17;;;6.67;;
14975;SDS011;7584;60.468;25.126;2022-12-07T06:31:26;19.13;;;6.90;;
14975;SDS011;7584;60.468;25.126;2022-12-07T06:33:51;19.40;;;6.77;;
14975;SDS011;7584;60.468;25.126;2022-12-07T06:36:21;23.37;;;8.17;;
14975;SDS011;7584;60.468;25.126;2022-12-07T06:38:46;17.70;;;6.93;;
14975;SDS011;7584;60.468;25.126;2022-12-07T06:41:12;19.30;;;7.27;;
14975;SDS011;7584;60.468;25.126;2022-12-07T06:43:37;17.73;;;7.40;;
14975;SDS011;7584;60.468;25.126;2022-12-07T06:46:03;13.77;;;7.00;;
14975;SDS011;7584;60.468;25.126;2022-12-07T06:48:28;16.63;;;6.83;;
14975;SDS011;7584;60.468;25.126;2022-12-07T06:50:53;16.90;;;6.73;;
14975;SDS011;7584;60.468;25.126;2022-12-07T06:53:19;16.90;;;7.90;;
14975;SDS011;7584;60.468;25.126;2022-12-07T06:55:44;15.00;;;7.77;;
14975;SDS011;7584;60.468;25.126;2022-12-07T06:58:09;19.10;;;7.73;;
14975;SDS011;7584;60.468;25.126;2022-12-07T07:00:35;20.77;;;8.27;;
14975;SDS011;7584;60.468;25.126;2022-12-07T07:03:00;20.03;;;7.60;;
14975;SDS011;7584;60.468;25.126;2022-12-07T07:05:25;15.43;;;7.17;;
14975;SDS011;7584;60.468;25.126;2022-12-07T07:07:51;24.30;;;8.77;;
14975;SDS011;7584;60.468;25.126;2022-12-07T07:10:16;25.37;;;8.53;;
14975;SDS011;7584;60.468;25.126;2022-12-07T07:12:41;19.57;;;8.23;;
14975;SDS011;7584;60.468;25.126;2022-12-07T07:15:07;19.57;;;8.57;;
14975;SDS011;7584;60.468;25.126;2022-12-07T07:17:32;28.10;;;8.67;;
14975;SDS011;7584;60.468;25.126;2022-12-07T07:19:57;25.43;;;9.43;;
14975;SDS011;7584;60.468;25.126;2022-12-07T07:22:23;20.40;;;7.67;;
14975;SDS011;7584;60.468;25.126;2022-12-07T07:24:48;22.40;;;8.53;;
14975;SDS011;7584;60.468;25.126;2022-12-07T07:27:13;19.40;;;8.33;;
14975;SDS011;7584;60.468;25.126;2022-12-07T07:29:39;18.90;;;8.33;;
14975;SDS011;7584;60.468;25.126;2022-12-07T07:32:04;18.50;;;8.67;;
14975;SDS011;7584;60.468;25.126;2022-12-07T07:34:29;14.17;;;7.60;;
14975;SDS011;7584;60.468;25.126;2022-12-07T07:36:55;20.63;;;9.37;;
14975;SDS011;7584;60.468;25.126;2022-12-07T07:39:20;22.27;;;8.03;;
14975;SDS011;7584;60.468;25.126;2022-12-07T07:41:46;14.67;;;7.97;;
14975;SDS011;7584;60.468;25.126;2022-12-07T07:44:11;16.70;;;8.37;;
14975;SDS011;7584;60.468;25.126;2022-12-07T07:46:37;16.60;;;8.27;;
14975;SDS011;7584;60.468;25.126;2022-12-07T07:49:02;15.37;;;7.40;;
14975;SDS011;7584;60.468;25.126;2022-12-07T07:51:28;14.43;;;7.13;;
14975;SDS011;7584;60.468;25.126;2022-12-07T07:53:53;14.47;;;7.77;;
14975;SDS011;7584;60.468;25.126;2022-12-07T07:56:18;14.23;;;7.10;;
14975;SDS011;7584;60.468;25.126;2022-12-07T07:58:43;14.80;;;7.13;;
14975;SDS011;7584;60.468;25.126;2022-12-07T08:01:09;14.73;;;7.47;;
14975;SDS011;7584;60.468;25.126;2022-12-07T08:03:34;14.33;;;7.73;;
14975;SDS011;7584;60.468;25.126;2022-12-07T08:06:01;19.33;;;7.23;;
14975;SDS011;7584;60.468;25.126;2022-12-07T08:08:26;16.03;;;8.37;;
14975;SDS011;7584;60.468;25.126;2022-12-07T08:10:52;17.00;;;8.60;;
14975;SDS011;7584;60.468;25.126;2022-12-07T08:13:17;19.07;;;8.37;;
14975;SDS011;7584;60.468;25.126;2022-12-07T08:15:43;17.97;;;8.90;;
14975;SDS011;7584;60.468;25.126;2022-12-07T08:18:09;18.43;;;9.40;;
14975;SDS011;7584;60.468;25.126;2022-12-07T08:20:35;14.13;;;8.07;;
14975;SDS011;7584;60.468;25.126;2022-12-07T08:23:01;12.97;;;7.23;;
14975;SDS011;7584;60.468;25.126;2022-12-07T08:25:26;14.57;;;7.53;;
14975;SDS011;7584;60.468;25.126;2022-12-07T08:27:52;14.83;;;7.70;;
14975;SDS011;7584;60.468;25.126;2022-12-07T08:30:17;12.67;;;7.30;;
14975;SDS011;7584;60.468;25.126;2022-12-07T08:32:46;15.77;;;7.87;;
14975;SDS011;7584;60.468;25.126;2022-12-07T08:35:11;11.67;;;7.80;;
14975;SDS011;7584;60.468;25.126;2022-12-07T08:37:37;15.63;;;7.67;;
14975;SDS011;7584;60.468;25.126;2022-12-07T08:40:03;13.30;;;6.80;;
14975;SDS011;7584;60.468;25.126;2022-12-07T08:42:29;11.13;;;6.37;;
14975;SDS011;7584;60.468;25.126;2022-12-07T08:45:02;11.07;;;6.40;;
14975;SDS011;7584;60.468;25.126;2022-12-07T08:47:28;12.13;;;6.70;;
14975;SDS011;7584;60.468;25.126;2022-12-07T08:49:53;12.77;;;6.77;;
14975;SDS011;7584;60.468;25.126;2022-12-07T08:52:18;12.07;;;6.60;;
14975;SDS011;7584;60.468;25.126;2022-12-07T08:54:44;11.67;;;6.37;;
14975;SDS011;7584;60.468;25.126;2022-12-07T08:57:10;11.57;;;6.63;;
14975;SDS011;7584;60.468;25.126;2022-12-07T08:59:36;10.73;;;6.27;;
14975;SDS011;7584;60.468;25.126;2022-12-07T09:02:02;10.80;;;6.50;;
14975;SDS011;7584;60.468;25.126;2022-12-07T09:04:27;11.80;;;5.83;;
14975;SDS011;7584;60.468;25.126;2022-12-07T09:06:53;9.67;;;5.90;;
14975;SDS011;7584;60.468;25.126;2022-12-07T09:09:18;11.60;;;6.53;;
14975;SDS011;7584;60.468;25.126;2022-12-07T09:11:44;11.17;;;6.97;;
14975;SDS011;7584;60.468;25.126;2022-12-07T09:14:10;10.80;;;6.07;;
14975;SDS011;7584;60.468;25.126;2022-12-07T09:16:35;11.07;;;6.47;;
14975;SDS011;7584;60.468;25.126;2022-12-07T09:19:00;13.83;;;7.07;;
14975;SDS011;7584;60.468;25.126;2022-12-07T09:21:26;11.03;;;6.13;;
14975;SDS011;7584;60.468;25.126;2022-12-07T09:23:51;10.40;;;5.80;;
14975;SDS011;7584;60.468;25.126;2022-12-07T09:26:16;11.73;;;5.93;;
14975;SDS011;7584;60.468;25.126;2022-12-07T09:28:41;9.37;;;5.63;;
14975;SDS011;7584;60.468;25.126;2022-12-07T09:31:07;10.40;;;5.83;;
14975;SDS011;7584;60.468;25.126;2022-12-07T09:33:32;11.03;;;6.27;;
14975;SDS011;7584;60.468;25.126;2022-12-07T09:35:58;11.63;;;6.13;;
14975;SDS011;7584;60.468;25.126;2022-12-07T09:38:23;10.67;;;6.83;;
14975;SDS011;7584;60.468;25.126;2022-12-07T09:40:51;11.83;;;6.53;;
14975;SDS011;7584;60.468;25.126;2022-12-07T09:43:18;9.50;;;5.57;;
14975;SDS011;7584;60.468;25.126;2022-12-07T09:45:44;10.47;;;5.93;;
14975;SDS011;7584;60.468;25.126;2022-12-07T09:48:30;10.80;;;5.50;;
14975;SDS011;7584;60.468;25.126;2022-12-07T09:50:57;11.77;;;6.00;;
14975;SDS011;7584;60.468;25.126;2022-12-07T09:53:30;10.70;;;6.07;;
14975;SDS011;7584;60.468;25.126;2022-12-07T09:55:58;10.20;;;5.70;;
14975;SDS011;7584;60.468;25.126;2022-12-07T09:58:24;8.73;;;4.73;;
14975;SDS011;7584;60.468;25.126;2022-12-07T10:01:05;8.87;;;6.33;;
14975;SDS011;7584;60.468;25.126;2022-12-07T10:03:30;8.03;;;5.20;;
14975;SDS011;7584;60.468;25.126;2022-12-07T10:05:56;8.70;;;5.53;;
14975;SDS011;7584;60.468;25.126;2022-12-07T10:08:22;9.03;;;6.13;;
14975;SDS011;7584;60.468;25.126;2022-12-07T10:10:50;9.83;;;5.97;;
14975;SDS011;7584;60.468;25.126;2022-12-07T10:13:18;10.40;;;5.50;;
14975;SDS011;7584;60.468;25.126;2022-12-07T10:15:46;10.03;;;5.60;;
14975;SDS011;7584;60.468;25.126;2022-12-07T10:21:11;9.73;;;5.87;;
14975;SDS011;7584;60.468;25.126;2022-12-07T10:23:38;9.17;;;5.03;;
14975;SDS011;7584;60.468;25.126;2022-12-07T10:26:20;9.07;;;5.83;;
14975;SDS011;7584;60.468;25.126;2022-12-07T10:28:46;8.60;;;5.00;;
14975;SDS011;7584;60.468;25.126;2022-12-07T10:31:15;9.43;;;5.20;;
14975;SDS011;7584;60.468;25.126;2022-12-07T10:33:49;7.77;;;4.97;;
14975;SDS011;7584;60.468;25.126;2022-12-07T10:38:46;6.83;;;4.70;;
14975;SDS011;7584;60.468;25.126;2022-12-07T10:41:12;9.37;;;5.33;;
14975;SDS011;7584;60.468;25.126;2022-12-07T10:43:42;8.90;;;5.20;;
14975;SDS011;7584;60.468;25.126;2022-12-07T10:46:24;10.40;;;5.40;;
14975;SDS011;7584;60.468;25.126;2022-12-07T10:56:34;8.77;;;4.23;;
14975;SDS011;7584;60.468;25.126;2022-12-07T11:04:18;7.93;;;4.50;;
14975;SDS011;7584;60.468;25.126;2022-12-07T11:07:01;6.60;;;3.90;;
14975;SDS011;7584;60.468;25.126;2022-12-07T11:11:59;4.43;;;3.43;;
14975;SDS011;7584;60.468;25.126;2022-12-07T11:27:44;6.33;;;3.93;;
14975;SDS011;7584;60.468;25.126;2022-12-07T11:30:22;5.67;;;3.63;;
14975;SDS011;7584;60.468;25.126;2022-12-07T11:38:17;5.07;;;3.53;;
14975;SDS011;7584;60.468;25.126;2022-12-07T11:40:46;5.67;;;3.53;;
14975;SDS011;7584;60.468;25.126;2022-12-07T11:45:39;3.60;;;2.40;;
14975;SDS011;7584;60.468;25.126;2022-12-07T11:48:10;3.73;;;2.60;;
14975;SDS011;7584;60.468;25.126;2022-12-07T12:03:51;4.73;;;3.00;;
14975;SDS011;7584;60.468;25.126;2022-12-07T12:06:17;4.40;;;2.43;;
14975;SDS011;7584;60.468;25.126;2022-12-07T12:08:49;4.33;;;2.87;;
14975;SDS011;7584;60.468;25.126;2022-12-07T12:13:51;5.27;;;2.83;;
14975;SDS011;7584;60.468;25.126;2022-12-07T12:19:17;5.83;;;2.60;;
14975;SDS011;7584;60.468;25.126;2022-12-07T12:21:44;5.60;;;2.60;;
14975;SDS011;7584;60.468;25.126;2022-12-07T12:24:13;5.30;;;2.57;;
14975;SDS011;7584;60.468;25.126;2022-12-07T12:26:48;3.60;;;2.50;;
14975;SDS011;7584;60.468;25.126;2022-12-07T12:29:50;4.37;;;2.80;;
14975;SDS011;7584;60.468;25.126;2022-12-07T12:32:15;4.67;;;2.27;;
14975;SDS011;7584;60.468;25.126;2022-12-07T12:40:12;3.03;;;2.33;;
14975;SDS011;7584;60.468;25.126;2022-12-07T12:42:55;3.03;;;2.03;;
14975;SDS011;7584;60.468;25.126;2022-12-07T12:55:18;2.93;;;2.30;;
14975;SDS011;7584;60.468;25.126;2022-12-07T12:57:46;4.00;;;2.20;;
14975;SDS011;7584;60.468;25.126;2022-12-07T13:02:53;3.37;;;2.37;;
14975;SDS011;7584;60.468;25.126;2022-12-07T13:05:26;4.10;;;2.80;;
14975;SDS011;7584;60.468;25.126;2022-12-07T13:07:54;3.80;;;2.43;;
14975;SDS011;7584;60.468;25.126;2022-12-07T13:15:36;3.93;;;2.87;;
14975;SDS011;7584;60.468;25.126;2022-12-07T13:18:04;5.40;;;2.63;;
14975;SDS011;7584;60.468;25.126;2022-12-07T13:26:15;4.17;;;2.80;;
14975;SDS011;7584;60.468;25.126;2022-12-07T13:28:43;3.77;;;2.77;;
14975;SDS011;7584;60.468;25.126;2022-12-07T13:33:46;3.07;;;2.27;;
14975;SDS011;7584;60.468;25.126;2022-12-07T13:36:14;3.90;;;2.83;;
14975;SDS011;7584;60.468;25.126;2022-12-07T13:38:48;3.83;;;2.73;;
14975;SDS011;7584;60.468;25.126;2022-12-07T13:41:15;5.00;;;3.03;;
14975;SDS011;7584;60.468;25.126;2022-12-07T13:44:00;3.13;;;2.43;;
14975;SDS011;7584;60.468;25.126;2022-12-07T13:46:31;3.40;;;2.67;;
14975;SDS011;7584;60.468;25.126;2022-12-07T13:48:57;4.57;;;2.70;;
14975;SDS011;7584;60.468;25.126;2022-12-07T13:51:24;3.83;;;2.60;;
14975;SDS011;7584;60.468;25.126;2022-12-07T13:53:54;3.90;;;2.43;;
14975;SDS011;7584;60.468;25.126;2022-12-07T13:56:25;4.33;;;3.07;;
14975;SDS011;7584;60.468;25.126;2022-12-07T13:58:51;4.67;;;2.73;;
14975;SDS011;7584;60.468;25.126;2022-12-07T14:01:16;4.03;;;2.40;;
14975;SDS011;7584;60.468;25.126;2022-12-07T14:03:43;6.53;;;3.13;;
14975;SDS011;7584;60.468;25.126;2022-12-07T14:09:16;4.43;;;3.20;;
14975;SDS011;7584;60.468;25.126;2022-12-07T14:11:42;3.87;;;3.00;;
14975;SDS011;7584;60.468;25.126;2022-12-07T14:14:10;3.93;;;2.97;;
14975;SDS011;7584;60.468;25.126;2022-12-07T14:16:36;4.50;;;2.70;;
14975;SDS011;7584;60.468;25.126;2022-12-07T14:19:06;3.50;;;2.80;;
14975;SDS011;7584;60.468;25.126;2022-12-07T14:21:54;4.93;;;2.87;;
14975;SDS011;7584;60.468;25.126;2022-12-07T14:24:30;3.70;;;2.83;;
14975;SDS011;7584;60.468;25.126;2022-12-07T14:27:15;3.17;;;2.40;;
14975;SDS011;7584;60.468;25.126;2022-12-07T14:29:41;3.03;;;2.33;;
14975;SDS011;7584;60.468;25.126;2022-12-07T14:32:14;3.77;;;2.67;;
14975;SDS011;7584;60.468;25.126;2022-12-07T14:34:52;26.43;;;13.13;;
14975;SDS011;7584;60.468;25.126;2022-12-07T14:37:17;3.30;;;2.77;;
14975;SDS011;7584;60.468;25.126;2022-12-07T14:39:42;3.70;;;2.73;;
14975;SDS011;7584;60.468;25.126;2022-12-07T14:42:08;3.67;;;2.67;;
14975;SDS011;7584;60.468;25.126;2022-12-07T14:44:33;3.40;;;3.10;;
14975;SDS011;7584;60.468;25.126;2022-12-07T14:46:58;3.60;;;2.97;;
14975;SDS011;7584;60.468;25.126;2022-12-07T14:49:24;2.83;;;2.20;;
14975;SDS011;7584;60.468;25.126;2022-12-07T14:51:49;2.70;;;2.50;;
14975;SDS011;7584;60.468;25.126;2022-12-07T14:54:18;3.23;;;2.50;;
14975;SDS011;7584;60.468;25.126;2022-12-07T14:56:44;2.87;;;2.37;;
14975;SDS011;7584;60.468;25.126;2022-12-07T14:59:10;2.67;;;2.20;;
14975;SDS011;7584;60.468;25.126;2022-12-07T15:01:36;4.23;;;2.57;;
14975;SDS011;7584;60.468;25.126;2022-12-07T15:04:02;3.33;;;2.40;;
14975;SDS011;7584;60.468;25.126;2022-12-07T15:06:27;3.50;;;2.70;;
14975;SDS011;7584;60.468;25.126;2022-12-07T15:08:52;4.27;;;2.27;;
14975;SDS011;7584;60.468;25.126;2022-12-07T15:11:18;5.10;;;2.37;;
14975;SDS011;7584;60.468;25.126;2022-12-07T15:13:43;3.73;;;2.50;;
14975;SDS011;7584;60.468;25.126;2022-12-07T15:16:27;3.63;;;2.17;;
14975;SDS011;7584;60.468;25.126;2022-12-07T15:18:53;3.73;;;2.57;;
14975;SDS011;7584;60.468;25.126;2022-12-07T15:21:18;2.87;;;2.30;;
14975;SDS011;7584;60.468;25.126;2022-12-07T15:23:43;5.83;;;2.63;;
14975;SDS011;7584;60.468;25.126;2022-12-07T15:26:11;4.70;;;3.10;;
14975;SDS011;7584;60.468;25.126;2022-12-07T15:28:37;4.33;;;2.83;;
14975;SDS011;7584;60.468;25.126;2022-12-07T15:31:02;4.63;;;2.57;;
14975;SDS011;7584;60.468;25.126;2022-12-07T15:33:28;3.30;;;2.40;;
14975;SDS011;7584;60.468;25.126;2022-12-07T15:35:53;3.43;;;2.50;;
14975;SDS011;7584;60.468;25.126;2022-12-07T15:38:18;4.37;;;2.90;;
14975;SDS011;7584;60.468;25.126;2022-12-07T15:40:46;4.53;;;2.47;;
14975;SDS011;7584;60.468;25.126;2022-12-07T15:43:11;3.33;;;2.33;;
14975;SDS011;7584;60.468;25.126;2022-12-07T15:45:55;3.87;;;2.90;;
14975;SDS011;7584;60.468;25.126;2022-12-07T15:48:20;3.13;;;2.50;;
14975;SDS011;7584;60.468;25.126;2022-12-07T15:50:46;3.00;;;2.50;;
14975;SDS011;7584;60.468;25.126;2022-12-07T15:53:11;3.87;;;2.40;;
14975;SDS011;7584;60.468;25.126;2022-12-07T15:55:38;3.87;;;3.07;;
14975;SDS011;7584;60.468;25.126;2022-12-07T15:58:03;4.30;;;2.67;;
14975;SDS011;7584;60.468;25.126;2022-12-07T16:00:29;3.83;;;2.70;;
14975;SDS011;7584;60.468;25.126;2022-12-07T16:02:54;4.43;;;3.20;;
14975;SDS011;7584;60.468;25.126;2022-12-07T16:05:19;3.80;;;2.87;;
14975;SDS011;7584;60.468;25.126;2022-12-07T16:07:45;4.17;;;3.10;;
14975;SDS011;7584;60.468;25.126;2022-12-07T16:10:11;5.07;;;3.27;;
14975;SDS011;7584;60.468;25.126;2022-12-07T16:12:36;12.33;;;7.27;;
14975;SDS011;7584;60.468;25.126;2022-12-07T16:15:02;19.77;;;10.87;;
14975;SDS011;7584;60.468;25.126;2022-12-07T16:17:27;30.27;;;19.20;;
14975;SDS011;7584;60.468;25.126;2022-12-07T16:19:52;15.50;;;9.27;;
14975;SDS011;7584;60.468;25.126;2022-12-07T16:22:18;11.63;;;6.87;;
14975;SDS011;7584;60.468;25.126;2022-12-07T16:24:43;6.40;;;3.90;;
14975;SDS011;7584;60.468;25.126;2022-12-07T16:27:09;6.97;;;4.53;;
14975;SDS011;7584;60.468;25.126;2022-12-07T16:29:34;3.20;;;2.67;;
14975;SDS011;7584;60.468;25.126;2022-12-07T16:31:59;6.77;;;3.73;;
14975;SDS011;7584;60.468;25.126;2022-12-07T16:34:25;7.27;;;4.87;;
14975;SDS011;7584;60.468;25.126;2022-12-07T16:36:50;5.60;;;3.47;;
14975;SDS011;7584;60.468;25.126;2022-12-07T16:39:16;6.40;;;4.93;;
14975;SDS011;7584;60.468;25.126;2022-12-07T16:41:43;4.70;;;3.70;;
14975;SDS011;7584;60.468;25.126;2022-12-07T16:44:09;7.33;;;4.80;;
14975;SDS011;7584;60.468;25.126;2022-12-07T16:46:35;5.00;;;3.63;;
14975;SDS011;7584;60.468;25.126;2022-12-07T16:49:01;7.97;;;4.13;;
14975;SDS011;7584;60.468;25.126;2022-12-07T16:51:26;5.53;;;3.83;;